sensor_id;sensor_type;location;lat;lon;timestamp;temperature;humidity
2639;DHT22;1329;51.384;7.122;2023-09-18T00:00:11;21.60;96.40
2639;DHT22;1329;51.384;7.122;2023-09-18T00:02:39;21.60;96.30
2639;DHT22;1329;51.384;7.122;2023-09-18T00:05:06;21.60;96.40
2639;DHT22;1329;51.384;7.122;2023-09-18T00:07:34;21.60;96.40
2639;DHT22;1329;51.384;7.122;2023-09-18T00:10:02;21.60;96.30
2639;DHT22;1329;51.384;7.122;2023-09-18T00:12:29;21.60;96.10
2639;DHT22;1329;51.384;7.122;2023-09-18T00:14:56;21.60;96.40
2639;DHT22;1329;51.384;7.122;2023-09-18T00:17:23;21.50;96.20
2639;DHT22;1329;51.384;7.122;2023-09-18T00:19:50;21.50;96.20
2639;DHT22;1329;51.384;7.122;2023-09-18T00:22:18;21.50;96.20
2639;DHT22;1329;51.384;7.122;2023-09-18T00:24:45;21.50;96.20
2639;DHT22;1329;51.384;7.122;2023-09-18T00:27:13;21.50;96.30
2639;DHT22;1329;51.384;7.122;2023-09-18T00:29:41;21.40;95.90
2639;DHT22;1329;51.384;7.122;2023-09-18T00:32:08;21.40;95.80
2639;DHT22;1329;51.384;7.122;2023-09-18T00:34:35;21.40;95.50
2639;DHT22;1329;51.384;7.122;2023-09-18T00:37:02;21.40;95.50
2639;DHT22;1329;51.384;7.122;2023-09-18T00:39:30;21.40;95.60
2639;DHT22;1329;51.384;7.122;2023-09-18T00:41:57;21.30;95.60
2639;DHT22;1329;51.384;7.122;2023-09-18T00:44:25;21.30;95.80
2639;DHT22;1329;51.384;7.122;2023-09-18T00:46:53;21.30;96.00
2639;DHT22;1329;51.384;7.122;2023-09-18T00:49:22;21.30;96.10
2639;DHT22;1329;51.384;7.122;2023-09-18T00:51:51;21.30;96.20
2639;DHT22;1329;51.384;7.122;2023-09-18T00:54:19;21.30;96.50
2639;DHT22;1329;51.384;7.122;2023-09-18T00:56:46;21.30;96.40
2639;DHT22;1329;51.384;7.122;2023-09-18T00:59:19;21.20;96.30
2639;DHT22;1329;51.384;7.122;2023-09-18T01:01:48;21.20;96.60
2639;DHT22;1329;51.384;7.122;2023-09-18T01:04:16;21.20;96.40
2639;DHT22;1329;51.384;7.122;2023-09-18T01:06:43;21.20;96.70
2639;DHT22;1329;51.384;7.122;2023-09-18T01:09:15;21.20;96.80
2639;DHT22;1329;51.384;7.122;2023-09-18T01:11:50;21.20;96.70
2639;DHT22;1329;51.384;7.122;2023-09-18T01:14:28;21.20;96.80
2639;DHT22;1329;51.384;7.122;2023-09-18T01:17:00;21.10;96.60
2639;DHT22;1329;51.384;7.122;2023-09-18T01:19:39;21.10;96.50
2639;DHT22;1329;51.384;7.122;2023-09-18T01:22:08;21.10;95.50
2639;DHT22;1329;51.384;7.122;2023-09-18T01:24:38;21.10;96.20
2639;DHT22;1329;51.384;7.122;2023-09-18T01:27:08;21.10;96.20
2639;DHT22;1329;51.384;7.122;2023-09-18T01:29:36;21.10;96.50
2639;DHT22;1329;51.384;7.122;2023-09-18T01:32:04;21.00;96.70
2639;DHT22;1329;51.384;7.122;2023-09-18T01:34:33;21.00;96.70
2639;DHT22;1329;51.384;7.122;2023-09-18T01:37:03;21.00;96.50
2639;DHT22;1329;51.384;7.122;2023-09-18T01:39:34;21.00;96.50
2639;DHT22;1329;51.384;7.122;2023-09-18T01:42:04;21.00;96.50
2639;DHT22;1329;51.384;7.122;2023-09-18T01:44:35;21.00;96.30
2639;DHT22;1329;51.384;7.122;2023-09-18T01:47:06;20.90;96.60
2639;DHT22;1329;51.384;7.122;2023-09-18T01:49:36;20.90;96.50
2639;DHT22;1329;51.384;7.122;2023-09-18T01:52:06;20.90;96.80
2639;DHT22;1329;51.384;7.122;2023-09-18T01:54:34;20.90;97.40
2639;DHT22;1329;51.384;7.122;2023-09-18T01:57:04;20.90;97.40
2639;DHT22;1329;51.384;7.122;2023-09-18T01:59:33;20.90;97.70
2639;DHT22;1329;51.384;7.122;2023-09-18T02:02:00;20.90;98.10
2639;DHT22;1329;51.384;7.122;2023-09-18T02:04:29;20.80;98.30
2639;DHT22;1329;51.384;7.122;2023-09-18T02:06:56;20.80;98.20
2639;DHT22;1329;51.384;7.122;2023-09-18T02:09:24;20.80;98.40
2639;DHT22;1329;51.384;7.122;2023-09-18T02:11:51;20.80;98.60
2639;DHT22;1329;51.384;7.122;2023-09-18T02:14:19;20.80;98.60
2639;DHT22;1329;51.384;7.122;2023-09-18T02:16:47;20.90;98.70
2639;DHT22;1329;51.384;7.122;2023-09-18T02:19:16;20.80;98.90
2639;DHT22;1329;51.384;7.122;2023-09-18T02:21:44;20.80;99.10
2639;DHT22;1329;51.384;7.122;2023-09-18T02:24:10;20.80;99.40
2639;DHT22;1329;51.384;7.122;2023-09-18T02:26:37;20.80;99.70
2639;DHT22;1329;51.384;7.122;2023-09-18T02:29:06;20.90;99.90
2639;DHT22;1329;51.384;7.122;2023-09-18T02:31:37;20.90;99.90
2639;DHT22;1329;51.384;7.122;2023-09-18T02:34:04;20.90;99.90
2639;DHT22;1329;51.384;7.122;2023-09-18T02:36:31;20.90;99.90
2639;DHT22;1329;51.384;7.122;2023-09-18T02:38:58;20.90;99.90
2639;DHT22;1329;51.384;7.122;2023-09-18T02:41:26;20.90;99.90
2639;DHT22;1329;51.384;7.122;2023-09-18T02:43:53;20.90;99.90
2639;DHT22;1329;51.384;7.122;2023-09-18T02:46:20;20.90;99.90
2639;DHT22;1329;51.384;7.122;2023-09-18T02:48:49;21.00;99.90
2639;DHT22;1329;51.384;7.122;2023-09-18T02:51:16;21.00;99.90
2639;DHT22;1329;51.384;7.122;2023-09-18T02:53:43;21.10;99.90
2639;DHT22;1329;51.384;7.122;2023-09-18T02:56:10;21.10;99.90
2639;DHT22;1329;51.384;7.122;2023-09-18T02:58:37;21.10;99.90
2639;DHT22;1329;51.384;7.122;2023-09-18T03:01:04;21.10;99.90
2639;DHT22;1329;51.384;7.122;2023-09-18T03:03:33;21.20;99.90
2639;DHT22;1329;51.384;7.122;2023-09-18T03:06:02;21.20;99.90
2639;DHT22;1329;51.384;7.122;2023-09-18T03:08:31;21.30;99.90
2639;DHT22;1329;51.384;7.122;2023-09-18T03:10:58;21.30;99.90
2639;DHT22;1329;51.384;7.122;2023-09-18T03:13:27;21.40;99.90
2639;DHT22;1329;51.384;7.122;2023-09-18T03:15:54;21.40;99.90
2639;DHT22;1329;51.384;7.122;2023-09-18T03:18:21;21.40;99.90
2639;DHT22;1329;51.384;7.122;2023-09-18T03:20:48;21.50;99.90
2639;DHT22;1329;51.384;7.122;2023-09-18T03:23:17;21.60;99.90
2639;DHT22;1329;51.384;7.122;2023-09-18T03:25:44;21.60;99.10
2639;DHT22;1329;51.384;7.122;2023-09-18T03:28:11;21.70;99.20
2639;DHT22;1329;51.384;7.122;2023-09-18T03:30:38;21.80;98.80
2639;DHT22;1329;51.384;7.122;2023-09-18T03:33:05;21.80;98.20
2639;DHT22;1329;51.384;7.122;2023-09-18T03:35:32;21.90;97.30
2639;DHT22;1329;51.384;7.122;2023-09-18T03:38:12;21.90;96.10
2639;DHT22;1329;51.384;7.122;2023-09-18T03:40:40;22.00;95.20
2639;DHT22;1329;51.384;7.122;2023-09-18T03:43:09;22.10;93.50
2639;DHT22;1329;51.384;7.122;2023-09-18T03:45:36;22.10;93.30
2639;DHT22;1329;51.384;7.122;2023-09-18T03:48:03;22.20;92.50
2639;DHT22;1329;51.384;7.122;2023-09-18T03:50:30;22.30;91.50
2639;DHT22;1329;51.384;7.122;2023-09-18T03:52:58;22.30;91.20
2639;DHT22;1329;51.384;7.122;2023-09-18T03:55:25;22.30;90.50
2639;DHT22;1329;51.384;7.122;2023-09-18T03:57:54;22.40;90.00
2639;DHT22;1329;51.384;7.122;2023-09-18T04:00:24;22.40;85.10
2639;DHT22;1329;51.384;7.122;2023-09-18T04:02:54;22.40;80.40
2639;DHT22;1329;51.384;7.122;2023-09-18T04:05:21;22.40;81.20
2639;DHT22;1329;51.384;7.122;2023-09-18T04:07:48;22.40;83.20
2639;DHT22;1329;51.384;7.122;2023-09-18T04:10:15;22.50;81.60
2639;DHT22;1329;51.384;7.122;2023-09-18T04:12:45;22.50;80.80
2639;DHT22;1329;51.384;7.122;2023-09-18T04:15:16;22.50;79.50
2639;DHT22;1329;51.384;7.122;2023-09-18T04:17:44;22.40;74.30
2639;DHT22;1329;51.384;7.122;2023-09-18T04:20:11;22.40;78.30
2639;DHT22;1329;51.384;7.122;2023-09-18T04:22:45;22.40;78.10
2639;DHT22;1329;51.384;7.122;2023-09-18T04:25:15;22.40;72.50
2639;DHT22;1329;51.384;7.122;2023-09-18T04:27:42;22.40;78.00
2639;DHT22;1329;51.384;7.122;2023-09-18T04:30:10;22.40;77.80
2639;DHT22;1329;51.384;7.122;2023-09-18T04:32:40;22.40;77.90
2639;DHT22;1329;51.384;7.122;2023-09-18T04:35:07;22.40;75.80
2639;DHT22;1329;51.384;7.122;2023-09-18T04:37:37;22.30;77.50
2639;DHT22;1329;51.384;7.122;2023-09-18T04:40:06;22.30;77.00
2639;DHT22;1329;51.384;7.122;2023-09-18T04:42:37;22.40;76.00
2639;DHT22;1329;51.384;7.122;2023-09-18T04:45:06;22.40;77.40
2639;DHT22;1329;51.384;7.122;2023-09-18T04:47:34;22.30;76.50
2639;DHT22;1329;51.384;7.122;2023-09-18T04:50:03;22.40;77.70
2639;DHT22;1329;51.384;7.122;2023-09-18T04:52:35;22.40;76.00
2639;DHT22;1329;51.384;7.122;2023-09-18T04:55:02;22.30;77.30
2639;DHT22;1329;51.384;7.122;2023-09-18T04:57:32;22.40;76.10
2639;DHT22;1329;51.384;7.122;2023-09-18T04:59:59;22.30;74.50
2639;DHT22;1329;51.384;7.122;2023-09-18T05:02:26;22.30;73.70
2639;DHT22;1329;51.384;7.122;2023-09-18T05:04:56;22.30;73.50
2639;DHT22;1329;51.384;7.122;2023-09-18T05:07:24;22.30;73.40
2639;DHT22;1329;51.384;7.122;2023-09-18T05:09:52;22.20;71.60
2639;DHT22;1329;51.384;7.122;2023-09-18T05:12:19;22.30;73.60
2639;DHT22;1329;51.384;7.122;2023-09-18T05:14:47;22.20;74.00
2639;DHT22;1329;51.384;7.122;2023-09-18T05:17:19;22.30;74.00
2639;DHT22;1329;51.384;7.122;2023-09-18T05:19:47;22.20;73.00
2639;DHT22;1329;51.384;7.122;2023-09-18T05:22:14;22.20;73.10
2639;DHT22;1329;51.384;7.122;2023-09-18T05:24:45;22.20;72.80
2639;DHT22;1329;51.384;7.122;2023-09-18T05:27:12;22.20;69.90
2639;DHT22;1329;51.384;7.122;2023-09-18T05:29:39;22.20;73.10
2639;DHT22;1329;51.384;7.122;2023-09-18T05:32:05;22.10;73.00
2639;DHT22;1329;51.384;7.122;2023-09-18T05:34:32;22.10;73.60
2639;DHT22;1329;51.384;7.122;2023-09-18T05:36:59;22.10;73.40
2639;DHT22;1329;51.384;7.122;2023-09-18T05:39:27;22.10;73.90
2639;DHT22;1329;51.384;7.122;2023-09-18T05:41:56;22.10;74.10
2639;DHT22;1329;51.384;7.122;2023-09-18T05:44:23;22.10;72.30
2639;DHT22;1329;51.384;7.122;2023-09-18T05:46:50;22.10;74.20
2639;DHT22;1329;51.384;7.122;2023-09-18T05:49:17;22.10;74.40
2639;DHT22;1329;51.384;7.122;2023-09-18T05:51:44;22.10;73.70
2639;DHT22;1329;51.384;7.122;2023-09-18T05:54:12;22.00;74.20
2639;DHT22;1329;51.384;7.122;2023-09-18T05:56:39;22.10;74.70
2639;DHT22;1329;51.384;7.122;2023-09-18T05:59:08;22.10;74.80
2639;DHT22;1329;51.384;7.122;2023-09-18T06:01:35;22.10;73.40
2639;DHT22;1329;51.384;7.122;2023-09-18T06:04:03;22.10;74.90
2639;DHT22;1329;51.384;7.122;2023-09-18T06:06:31;22.10;74.50
2639;DHT22;1329;51.384;7.122;2023-09-18T06:08:58;22.10;74.50
2639;DHT22;1329;51.384;7.122;2023-09-18T06:11:25;22.10;74.70
2639;DHT22;1329;51.384;7.122;2023-09-18T06:13:52;22.10;74.10
2639;DHT22;1329;51.384;7.122;2023-09-18T06:16:21;22.20;74.10
2639;DHT22;1329;51.384;7.122;2023-09-18T06:18:48;22.10;72.30
2639;DHT22;1329;51.384;7.122;2023-09-18T06:21:15;22.20;74.10
2639;DHT22;1329;51.384;7.122;2023-09-18T06:23:42;22.20;73.20
2639;DHT22;1329;51.384;7.122;2023-09-18T06:26:12;22.20;73.20
2639;DHT22;1329;51.384;7.122;2023-09-18T06:28:39;22.20;70.50
2639;DHT22;1329;51.384;7.122;2023-09-18T06:31:06;22.20;73.40
2639;DHT22;1329;51.384;7.122;2023-09-18T06:33:35;22.20;73.00
2639;DHT22;1329;51.384;7.122;2023-09-18T06:36:03;22.20;71.50
2639;DHT22;1329;51.384;7.122;2023-09-18T06:38:30;22.30;72.40
2639;DHT22;1329;51.384;7.122;2023-09-18T06:40:57;22.30;71.90
2639;DHT22;1329;51.384;7.122;2023-09-18T06:43:24;22.30;71.40
2639;DHT22;1329;51.384;7.122;2023-09-18T06:45:51;22.30;71.20
2639;DHT22;1329;51.384;7.122;2023-09-18T06:48:18;22.30;70.50
2639;DHT22;1329;51.384;7.122;2023-09-18T06:50:48;22.30;69.30
2639;DHT22;1329;51.384;7.122;2023-09-18T06:53:15;22.40;66.40
2639;DHT22;1329;51.384;7.122;2023-09-18T06:55:42;22.40;66.40
2639;DHT22;1329;51.384;7.122;2023-09-18T06:58:09;22.30;65.70
2639;DHT22;1329;51.384;7.122;2023-09-18T07:00:36;22.30;65.00
2639;DHT22;1329;51.384;7.122;2023-09-18T07:03:04;22.30;64.50
2639;DHT22;1329;51.384;7.122;2023-09-18T07:05:32;22.40;63.60
2639;DHT22;1329;51.384;7.122;2023-09-18T07:08:00;22.40;62.40
2639;DHT22;1329;51.384;7.122;2023-09-18T07:10:28;22.40;60.00
2639;DHT22;1329;51.384;7.122;2023-09-18T07:12:55;22.40;62.40
2639;DHT22;1329;51.384;7.122;2023-09-18T07:15:25;22.40;61.10
2639;DHT22;1329;51.384;7.122;2023-09-18T07:17:51;22.40;60.30
2639;DHT22;1329;51.384;7.122;2023-09-18T07:20:23;22.40;59.90
2639;DHT22;1329;51.384;7.122;2023-09-18T07:22:52;22.50;60.90
2639;DHT22;1329;51.384;7.122;2023-09-18T07:25:21;22.50;61.20
2639;DHT22;1329;51.384;7.122;2023-09-18T07:27:48;22.50;59.80
2639;DHT22;1329;51.384;7.122;2023-09-18T07:30:15;22.60;61.20
2639;DHT22;1329;51.384;7.122;2023-09-18T07:32:45;22.60;59.20
2639;DHT22;1329;51.384;7.122;2023-09-18T07:35:12;22.60;57.80
2639;DHT22;1329;51.384;7.122;2023-09-18T07:37:43;22.70;58.50
2639;DHT22;1329;51.384;7.122;2023-09-18T07:40:12;22.70;58.00
2639;DHT22;1329;51.384;7.122;2023-09-18T07:42:40;22.70;57.70
2639;DHT22;1329;51.384;7.122;2023-09-18T07:45:09;22.80;53.40
2639;DHT22;1329;51.384;7.122;2023-09-18T07:47:36;22.80;57.00
2639;DHT22;1329;51.384;7.122;2023-09-18T07:50:04;22.80;55.00
2639;DHT22;1329;51.384;7.122;2023-09-18T07:52:32;22.80;53.70
2639;DHT22;1329;51.384;7.122;2023-09-18T07:54:59;22.90;52.30
2639;DHT22;1329;51.384;7.122;2023-09-18T07:57:26;22.90;50.70
2639;DHT22;1329;51.384;7.122;2023-09-18T07:59:57;22.90;47.40
2639;DHT22;1329;51.384;7.122;2023-09-18T08:02:24;22.90;44.20
2639;DHT22;1329;51.384;7.122;2023-09-18T08:04:54;23.00;46.30
2639;DHT22;1329;51.384;7.122;2023-09-18T08:07:21;23.00;44.80
2639;DHT22;1329;51.384;7.122;2023-09-18T08:09:48;23.00;43.10
2639;DHT22;1329;51.384;7.122;2023-09-18T08:12:15;23.00;41.00
2639;DHT22;1329;51.384;7.122;2023-09-18T08:14:43;23.00;39.20
2639;DHT22;1329;51.384;7.122;2023-09-18T08:17:11;23.00;40.30
2639;DHT22;1329;51.384;7.122;2023-09-18T08:19:38;23.10;37.30
2639;DHT22;1329;51.384;7.122;2023-09-18T08:22:05;23.10;39.90
2639;DHT22;1329;51.384;7.122;2023-09-18T08:24:36;23.10;36.60
2639;DHT22;1329;51.384;7.122;2023-09-18T08:27:03;23.10;29.60
2639;DHT22;1329;51.384;7.122;2023-09-18T08:29:30;23.10;35.20
2639;DHT22;1329;51.384;7.122;2023-09-18T08:32:01;23.10;30.90
2639;DHT22;1329;51.384;7.122;2023-09-18T08:34:29;23.10;28.90
2639;DHT22;1329;51.384;7.122;2023-09-18T08:36:57;23.10;25.10
2639;DHT22;1329;51.384;7.122;2023-09-18T08:39:24;23.10;27.70
2639;DHT22;1329;51.384;7.122;2023-09-18T08:41:55;23.10;29.10
2639;DHT22;1329;51.384;7.122;2023-09-18T08:44:27;23.10;22.60
2639;DHT22;1329;51.384;7.122;2023-09-18T08:46:54;23.10;25.80
2639;DHT22;1329;51.384;7.122;2023-09-18T08:49:23;23.10;27.60
2639;DHT22;1329;51.384;7.122;2023-09-18T08:51:54;23.20;26.50
2639;DHT22;1329;51.384;7.122;2023-09-18T08:54:22;23.20;22.60
2639;DHT22;1329;51.384;7.122;2023-09-18T08:56:50;23.20;25.20
2639;DHT22;1329;51.384;7.122;2023-09-18T08:59:21;23.30;24.30
2639;DHT22;1329;51.384;7.122;2023-09-18T09:01:51;23.20;20.40
2639;DHT22;1329;51.384;7.122;2023-09-18T09:04:18;23.30;20.50
2639;DHT22;1329;51.384;7.122;2023-09-18T09:06:46;23.30;19.80
2639;DHT22;1329;51.384;7.122;2023-09-18T09:09:15;23.30;19.50
2639;DHT22;1329;51.384;7.122;2023-09-18T09:11:49;23.40;15.70
2639;DHT22;1329;51.384;7.122;2023-09-18T09:14:16;23.40;14.90
2639;DHT22;1329;51.384;7.122;2023-09-18T09:16:48;23.40;20.80
2639;DHT22;1329;51.384;7.122;2023-09-18T09:19:15;23.40;19.70
2639;DHT22;1329;51.384;7.122;2023-09-18T09:21:46;23.50;16.20
2639;DHT22;1329;51.384;7.122;2023-09-18T09:24:17;23.50;15.50
2639;DHT22;1329;51.384;7.122;2023-09-18T09:26:44;23.50;14.30
2639;DHT22;1329;51.384;7.122;2023-09-18T09:29:24;23.60;16.20
2639;DHT22;1329;51.384;7.122;2023-09-18T09:31:51;23.60;14.80
2639;DHT22;1329;51.384;7.122;2023-09-18T09:34:25;23.60;12.70
2639;DHT22;1329;51.384;7.122;2023-09-18T09:36:53;23.70;4.20
2639;DHT22;1329;51.384;7.122;2023-09-18T09:39:23;23.70;8.30
2639;DHT22;1329;51.384;7.122;2023-09-18T09:41:52;23.70;5.40
2639;DHT22;1329;51.384;7.122;2023-09-18T09:44:22;23.70;7.80
2639;DHT22;1329;51.384;7.122;2023-09-18T09:46:54;23.70;3.50
2639;DHT22;1329;51.384;7.122;2023-09-18T09:49:21;23.70;6.20
2639;DHT22;1329;51.384;7.122;2023-09-18T09:51:58;23.70;6.30
2639;DHT22;1329;51.384;7.122;2023-09-18T09:54:39;23.70;5.50
2639;DHT22;1329;51.384;7.122;2023-09-18T09:57:09;23.70;1.00
2639;DHT22;1329;51.384;7.122;2023-09-18T09:59:36;23.70;2.20
2639;DHT22;1329;51.384;7.122;2023-09-18T10:02:08;23.70;5.60
2639;DHT22;1329;51.384;7.122;2023-09-18T10:04:48;23.80;1.00
2639;DHT22;1329;51.384;7.122;2023-09-18T10:07:16;23.90;4.60
2639;DHT22;1329;51.384;7.122;2023-09-18T10:09:47;23.90;1.90
2639;DHT22;1329;51.384;7.122;2023-09-18T10:12:18;23.90;1.00
2639;DHT22;1329;51.384;7.122;2023-09-18T10:14:47;23.90;1.00
2639;DHT22;1329;51.384;7.122;2023-09-18T10:17:17;24.00;1.00
2639;DHT22;1329;51.384;7.122;2023-09-18T10:19:53;24.10;1.00
2639;DHT22;1329;51.384;7.122;2023-09-18T10:22:30;24.00;1.00
2639;DHT22;1329;51.384;7.122;2023-09-18T10:25:11;24.10;1.00
2639;DHT22;1329;51.384;7.122;2023-09-18T10:27:45;24.10;1.00
2639;DHT22;1329;51.384;7.122;2023-09-18T10:30:15;24.10;1.00
2639;DHT22;1329;51.384;7.122;2023-09-18T10:32:48;24.10;1.00
2639;DHT22;1329;51.384;7.122;2023-09-18T10:35:16;24.10;1.00
2639;DHT22;1329;51.384;7.122;2023-09-18T10:37:46;24.10;1.00
2639;DHT22;1329;51.384;7.122;2023-09-18T10:40:19;24.10;1.00
2639;DHT22;1329;51.384;7.122;2023-09-18T10:42:48;24.20;1.00
2639;DHT22;1329;51.384;7.122;2023-09-18T10:45:17;24.20;1.00
2639;DHT22;1329;51.384;7.122;2023-09-18T10:47:44;24.10;1.00
2639;DHT22;1329;51.384;7.122;2023-09-18T10:50:22;24.20;1.00
2639;DHT22;1329;51.384;7.122;2023-09-18T10:52:50;24.20;1.00
2639;DHT22;1329;51.384;7.122;2023-09-18T10:55:20;24.20;1.00
2639;DHT22;1329;51.384;7.122;2023-09-18T10:57:50;24.20;1.00
2639;DHT22;1329;51.384;7.122;2023-09-18T11:00:18;24.20;1.00
2639;DHT22;1329;51.384;7.122;2023-09-18T11:02:50;24.20;1.00
2639;DHT22;1329;51.384;7.122;2023-09-18T11:05:29;24.20;1.00
2639;DHT22;1329;51.384;7.122;2023-09-18T11:08:24;24.20;1.00
2639;DHT22;1329;51.384;7.122;2023-09-18T11:11:02;24.30;1.00
2639;DHT22;1329;51.384;7.122;2023-09-18T11:13:36;24.30;1.00
2639;DHT22;1329;51.384;7.122;2023-09-18T11:16:32;24.30;1.00
2639;DHT22;1329;51.384;7.122;2023-09-18T11:19:09;24.30;1.00
2639;DHT22;1329;51.384;7.122;2023-09-18T11:21:38;24.40;1.00
2639;DHT22;1329;51.384;7.122;2023-09-18T11:24:06;24.40;1.00
2639;DHT22;1329;51.384;7.122;2023-09-18T11:26:40;24.40;1.00
2639;DHT22;1329;51.384;7.122;2023-09-18T11:29:09;24.50;1.00
2639;DHT22;1329;51.384;7.122;2023-09-18T11:31:42;24.60;1.00
2639;DHT22;1329;51.384;7.122;2023-09-18T11:34:14;24.60;1.00
2639;DHT22;1329;51.384;7.122;2023-09-18T11:36:44;24.70;1.00
2639;DHT22;1329;51.384;7.122;2023-09-18T11:39:12;24.80;1.00
2639;DHT22;1329;51.384;7.122;2023-09-18T11:41:45;24.90;1.00
2639;DHT22;1329;51.384;7.122;2023-09-18T11:44:32;24.90;1.00
2639;DHT22;1329;51.384;7.122;2023-09-18T11:47:08;25.00;1.00
2639;DHT22;1329;51.384;7.122;2023-09-18T11:49:39;25.10;1.00
2639;DHT22;1329;51.384;7.122;2023-09-18T11:52:12;25.10;1.00
2639;DHT22;1329;51.384;7.122;2023-09-18T11:54:40;25.20;1.00
2639;DHT22;1329;51.384;7.122;2023-09-18T11:57:09;25.20;1.00
2639;DHT22;1329;51.384;7.122;2023-09-18T11:59:39;25.20;1.00
2639;DHT22;1329;51.384;7.122;2023-09-18T12:02:08;25.30;1.00
2639;DHT22;1329;51.384;7.122;2023-09-18T12:04:36;25.40;1.00
2639;DHT22;1329;51.384;7.122;2023-09-18T12:07:05;25.40;1.00
2639;DHT22;1329;51.384;7.122;2023-09-18T12:09:34;25.40;1.00
2639;DHT22;1329;51.384;7.122;2023-09-18T12:12:04;25.50;1.00
2639;DHT22;1329;51.384;7.122;2023-09-18T12:14:34;25.50;1.00
2639;DHT22;1329;51.384;7.122;2023-09-18T12:17:03;25.60;1.00
2639;DHT22;1329;51.384;7.122;2023-09-18T12:19:30;25.60;1.00
2639;DHT22;1329;51.384;7.122;2023-09-18T12:22:00;25.60;1.00
2639;DHT22;1329;51.384;7.122;2023-09-18T12:24:27;25.70;1.00
2639;DHT22;1329;51.384;7.122;2023-09-18T12:26:54;25.70;1.00
2639;DHT22;1329;51.384;7.122;2023-09-18T12:29:22;25.80;1.00
2639;DHT22;1329;51.384;7.122;2023-09-18T12:31:50;25.80;1.00
2639;DHT22;1329;51.384;7.122;2023-09-18T12:34:18;25.90;1.00
2639;DHT22;1329;51.384;7.122;2023-09-18T12:36:47;25.90;1.00
2639;DHT22;1329;51.384;7.122;2023-09-18T12:39:14;25.90;1.00
2639;DHT22;1329;51.384;7.122;2023-09-18T12:41:43;26.00;1.00
2639;DHT22;1329;51.384;7.122;2023-09-18T12:44:10;26.00;1.00
2639;DHT22;1329;51.384;7.122;2023-09-18T12:46:40;26.10;1.00
2639;DHT22;1329;51.384;7.122;2023-09-18T12:49:19;26.10;1.00
2639;DHT22;1329;51.384;7.122;2023-09-18T12:51:56;26.20;1.00
2639;DHT22;1329;51.384;7.122;2023-09-18T12:54:37;26.30;1.00
2639;DHT22;1329;51.384;7.122;2023-09-18T12:57:08;26.30;1.00
2639;DHT22;1329;51.384;7.122;2023-09-18T12:59:37;26.40;1.00
2639;DHT22;1329;51.384;7.122;2023-09-18T13:02:04;26.40;1.00
2639;DHT22;1329;51.384;7.122;2023-09-18T13:04:34;26.40;1.00
2639;DHT22;1329;51.384;7.122;2023-09-18T13:07:10;26.40;1.00
2639;DHT22;1329;51.384;7.122;2023-09-18T13:09:38;26.40;1.00
2639;DHT22;1329;51.384;7.122;2023-09-18T13:12:06;26.40;1.00
2639;DHT22;1329;51.384;7.122;2023-09-18T13:14:59;26.40;1.00
2639;DHT22;1329;51.384;7.122;2023-09-18T13:17:37;26.50;1.00
2639;DHT22;1329;51.384;7.122;2023-09-18T13:20:17;26.50;1.00
2639;DHT22;1329;51.384;7.122;2023-09-18T13:22:52;26.60;1.00
2639;DHT22;1329;51.384;7.122;2023-09-18T13:25:23;26.60;1.00
2639;DHT22;1329;51.384;7.122;2023-09-18T13:27:52;26.60;1.00
2639;DHT22;1329;51.384;7.122;2023-09-18T13:30:21;26.70;1.00
2639;DHT22;1329;51.384;7.122;2023-09-18T13:33:00;26.70;1.00
2639;DHT22;1329;51.384;7.122;2023-09-18T13:35:29;26.80;1.00
2639;DHT22;1329;51.384;7.122;2023-09-18T13:37:56;26.80;1.00
2639;DHT22;1329;51.384;7.122;2023-09-18T13:40:24;26.90;1.00
2639;DHT22;1329;51.384;7.122;2023-09-18T13:42:51;27.00;1.00
2639;DHT22;1329;51.384;7.122;2023-09-18T13:45:18;27.00;1.00
2639;DHT22;1329;51.384;7.122;2023-09-18T13:47:45;27.00;1.00
2639;DHT22;1329;51.384;7.122;2023-09-18T13:50:14;27.10;1.00
2639;DHT22;1329;51.384;7.122;2023-09-18T13:52:51;27.10;1.00
2639;DHT22;1329;51.384;7.122;2023-09-18T13:55:20;27.20;1.00
2639;DHT22;1329;51.384;7.122;2023-09-18T13:57:48;27.20;1.00
2639;DHT22;1329;51.384;7.122;2023-09-18T14:00:17;27.20;1.00
2639;DHT22;1329;51.384;7.122;2023-09-18T14:02:44;27.20;1.00
2639;DHT22;1329;51.384;7.122;2023-09-18T14:05:12;27.10;1.00
2639;DHT22;1329;51.384;7.122;2023-09-18T14:07:39;27.10;1.00
2639;DHT22;1329;51.384;7.122;2023-09-18T14:10:09;27.00;1.00
2639;DHT22;1329;51.384;7.122;2023-09-18T14:12:49;26.90;1.00
2639;DHT22;1329;51.384;7.122;2023-09-18T14:15:16;26.80;1.00
2639;DHT22;1329;51.384;7.122;2023-09-18T14:17:44;26.80;1.00
2639;DHT22;1329;51.384;7.122;2023-09-18T14:20:11;26.70;1.00
2639;DHT22;1329;51.384;7.122;2023-09-18T14:22:38;26.60;1.00
2639;DHT22;1329;51.384;7.122;2023-09-18T14:25:06;26.60;1.00
2639;DHT22;1329;51.384;7.122;2023-09-18T14:27:35;26.50;1.00
2639;DHT22;1329;51.384;7.122;2023-09-18T14:30:02;26.50;1.00
2639;DHT22;1329;51.384;7.122;2023-09-18T14:32:32;26.50;1.00
2639;DHT22;1329;51.384;7.122;2023-09-18T14:34:59;26.60;1.00
2639;DHT22;1329;51.384;7.122;2023-09-18T14:37:27;26.60;1.00
2639;DHT22;1329;51.384;7.122;2023-09-18T14:39:54;26.60;1.00
2639;DHT22;1329;51.384;7.122;2023-09-18T14:42:23;26.70;1.00
2639;DHT22;1329;51.384;7.122;2023-09-18T14:44:50;26.80;1.00
2639;DHT22;1329;51.384;7.122;2023-09-18T14:47:17;26.80;1.00
2639;DHT22;1329;51.384;7.122;2023-09-18T14:49:44;26.90;1.00
2639;DHT22;1329;51.384;7.122;2023-09-18T14:52:12;27.00;1.00
2639;DHT22;1329;51.384;7.122;2023-09-18T14:54:40;27.10;1.00
2639;DHT22;1329;51.384;7.122;2023-09-18T14:57:08;27.10;1.00
2639;DHT22;1329;51.384;7.122;2023-09-18T14:59:37;27.20;1.00
2639;DHT22;1329;51.384;7.122;2023-09-18T15:02:05;27.20;1.00
2639;DHT22;1329;51.384;7.122;2023-09-18T15:04:41;27.20;1.00
2639;DHT22;1329;51.384;7.122;2023-09-18T15:07:08;27.20;1.00
2639;DHT22;1329;51.384;7.122;2023-09-18T15:09:40;27.20;1.00
2639;DHT22;1329;51.384;7.122;2023-09-18T15:12:08;27.20;1.00
2639;DHT22;1329;51.384;7.122;2023-09-18T15:14:43;27.20;1.00
2639;DHT22;1329;51.384;7.122;2023-09-18T15:17:10;27.20;1.00
2639;DHT22;1329;51.384;7.122;2023-09-18T15:19:39;27.20;1.00
2639;DHT22;1329;51.384;7.122;2023-09-18T15:22:07;27.20;1.00
2639;DHT22;1329;51.384;7.122;2023-09-18T15:24:37;27.20;1.00
2639;DHT22;1329;51.384;7.122;2023-09-18T15:27:05;27.30;1.00
2639;DHT22;1329;51.384;7.122;2023-09-18T15:29:32;27.20;1.00
2639;DHT22;1329;51.384;7.122;2023-09-18T15:32:03;27.20;1.00
2639;DHT22;1329;51.384;7.122;2023-09-18T15:34:42;27.30;1.00
2639;DHT22;1329;51.384;7.122;2023-09-18T15:37:10;27.30;1.00
2639;DHT22;1329;51.384;7.122;2023-09-18T15:39:46;27.30;1.00
2639;DHT22;1329;51.384;7.122;2023-09-18T15:42:17;27.30;1.00
2639;DHT22;1329;51.384;7.122;2023-09-18T15:44:44;27.40;1.00
2639;DHT22;1329;51.384;7.122;2023-09-18T15:47:15;27.30;1.00
2639;DHT22;1329;51.384;7.122;2023-09-18T15:49:42;27.40;1.00
2639;DHT22;1329;51.384;7.122;2023-09-18T15:52:17;27.40;1.00
2639;DHT22;1329;51.384;7.122;2023-09-18T15:54:50;27.40;1.00
2639;DHT22;1329;51.384;7.122;2023-09-18T15:57:28;27.40;1.00
2639;DHT22;1329;51.384;7.122;2023-09-18T15:59:58;27.40;1.00
2639;DHT22;1329;51.384;7.122;2023-09-18T16:02:29;27.40;1.00
2639;DHT22;1329;51.384;7.122;2023-09-18T16:05:10;27.40;1.00
2639;DHT22;1329;51.384;7.122;2023-09-18T16:07:51;27.40;1.00
2639;DHT22;1329;51.384;7.122;2023-09-18T16:10:22;27.40;1.00
2639;DHT22;1329;51.384;7.122;2023-09-18T16:12:49;27.40;1.00
2639;DHT22;1329;51.384;7.122;2023-09-18T16:15:16;27.40;1.00
2639;DHT22;1329;51.384;7.122;2023-09-18T16:17:45;27.40;1.00
2639;DHT22;1329;51.384;7.122;2023-09-18T16:20:12;27.40;1.00